Terminal Aerodrome Forecast
Issued by NWS Blacksburg, VA

Current Version | Previous Version | Graphics & Text | Print | Product List | Glossary On
Versions: 1 2 3 4 5 6 7 8 9 10 11 12 13 14 15 16 17 18 19 20 21 22 23 24 25 26 27 28 29 30 31 32 33 34 35 36
000
FTUS41 KRNK 302320
TAFBLF
TAF
KBLF 302320Z 0100/0124 23005KT P6SM VCTS BKN045CB
      TEMPO 0100/0102 4SM TSRA OVC035CB
     FM010200 25004KT 5SM -SHRA BKN035
     FM010900 27008KT P6SM OVC012
     FM011200 25007KT P6SM SCT013 OVC050
     FM011800 27009KT P6SM BKN045=

USA.gov is the U.S. government's official web portal to all federal, state and local government web resources and services.